Time;durP1;ratioP1;P1;durP2;ratioP2;P2;SDS_P1;SDS_P2;PMS_P1;PMS_P2;Temp;Humidity;BMP_temperature;BMP_pressure;BME280_temperature;BME280_humidity;BME280_pressure;Samples;Min_cycle;Max_cycle;Signal;HPM_P1;HPM_P2
2021/12/17 00:00:05;;;;;;;8.70;7.78;;;17.70;99.90;;;;;;1034811;28;20029;-63
2021/12/17 00:00:43;;;;;;;8.73;7.82;;;17.60;99.90;;;;;;1035216;28;20105;-63
2021/12/17 00:01:14;;;;;;;9.45;8.48;;;17.60;99.90;;;;;;1034293;28;20026;-62
2021/12/17 00:03:32;;;;;;;9.10;8.20;;;17.60;99.90;;;;;;1034566;28;20049;-64
2021/12/17 00:04:14;;;;;;;8.60;7.72;;;17.60;99.90;;;;;;1038563;28;20046;-64
2021/12/17 00:05:00;;;;;;;8.45;7.65;;;17.60;99.90;;;;;;1035152;28;20026;-65
2021/12/17 00:05:52;;;;;;;9.10;8.20;;;17.60;99.90;;;;;;1033910;28;20033;-64
2021/12/17 00:06:56;;;;;;;8.85;8.05;;;17.60;99.90;;;;;;1034192;28;20038;-64
2021/12/17 00:07:30;;;;;;;8.57;7.68;;;17.60;99.90;;;;;;1034827;28;20759;-62
2021/12/17 00:08:00;;;;;;;8.57;7.68;;;17.60;99.90;;;;;;1035056;28;20452;-65
2021/12/17 00:08:31;;;;;;;9.83;8.17;;;17.60;99.90;;;;;;1034879;28;20465;-63
2021/12/17 00:09:02;;;;;;;9.82;8.70;;;17.60;99.90;;;;;;1034250;28;20057;-62
2021/12/17 00:09:33;;;;;;;8.40;7.60;;;17.60;99.90;;;;;;1034625;28;20120;-65
2021/12/17 00:10:12;;;;;;;9.27;8.30;;;17.60;99.90;;;;;;1031584;28;20467;-65
2021/12/17 00:10:44;;;;;;;8.98;8.07;;;17.60;99.90;;;;;;1033582;28;20014;-65
2021/12/17 00:11:15;;;;;;;10.02;9.02;;;17.60;99.90;;;;;;1033159;28;20196;-65
2021/12/17 00:11:46;;;;;;;8.13;7.33;;;17.60;99.90;;;;;;1033883;28;20107;-63
2021/12/17 00:12:20;;;;;;;8.93;8.03;;;17.60;99.90;;;;;;1034948;28;20265;-65
2021/12/17 00:12:52;;;;;;;8.80;7.93;;;17.60;99.90;;;;;;1035174;28;20018;-63
2021/12/17 00:13:22;;;;;;;7.95;7.25;;;17.60;99.90;;;;;;1034438;28;20034;-63
2021/12/17 00:13:55;;;;;;;13.13;8.67;;;17.60;99.90;;;;;;1033081;28;20014;-65
2021/12/17 00:14:28;;;;;;;9.55;8.60;;;17.60;99.90;;;;;;1034234;28;20033;-63
2021/12/17 00:14:59;;;;;;;9.70;8.25;;;17.60;99.90;;;;;;1035529;28;20018;-64
2021/12/17 00:15:30;;;;;;;8.98;8.07;;;17.60;99.90;;;;;;1034877;28;20025;-63
2021/12/17 00:16:01;;;;;;;9.13;8.23;;;17.60;99.90;;;;;;1034870;28;20025;-64
2021/12/17 00:16:38;;;;;;;8.95;8.15;;;17.60;99.90;;;;;;1035372;28;20081;-62
2021/12/17 00:17:13;;;;;;;8.50;7.70;;;17.60;99.90;;;;;;1034418;28;20013;-63
2021/12/17 00:17:57;;;;;;;9.18;8.30;;;17.60;99.90;;;;;;1032513;28;20093;-63
2021/12/17 00:18:41;;;;;;;8.70;7.90;;;17.60;99.90;;;;;;1034614;28;20476;-65
2021/12/17 00:19:29;;;;;;;10.02;9.02;;;17.60;99.90;;;;;;1035156;28;20026;-64
2021/12/17 00:48:25;;;;;;;9.25;8.32;;;17.60;99.90;;;;;;1034563;28;20138;-65
2021/12/17 00:48:55;;;;;;;8.95;8.05;;;17.60;99.90;;;;;;1032277;28;20014;-63
2021/12/17 00:49:30;;;;;;;9.53;8.57;;;17.60;99.90;;;;;;1032864;28;20026;-63
2021/12/17 00:50:19;;;;;;;8.82;7.35;;;17.60;99.90;;;;;;1034838;28;20563;-64
2021/12/17 00:51:56;;;;;;;8.70;7.82;;;17.60;99.90;;;;;;1034814;28;20543;-65
2021/12/17 00:51:58;;;;;;;9.02;8.13;;;17.50;99.90;;;;;;1033103;28;20046;-64
2021/12/17 00:52:32;;;;;;;9.13;8.32;;;17.50;99.90;;;;;;1037818;28;20100;-65
2021/12/17 00:53:03;;;;;;;10.07;9.02;;;17.60;99.90;;;;;;1037631;28;20061;-66
2021/12/17 00:53:33;;;;;;;9.57;8.27;;;17.60;99.90;;;;;;1036117;28;20093;-63
2021/12/17 00:54:09;;;;;;;8.57;7.67;;;17.60;99.90;;;;;;1033695;28;20021;-64
2021/12/17 00:54:42;;;;;;;8.93;8.02;;;17.60;99.90;;;;;;1031525;28;20042;-64
2021/12/17 00:55:12;;;;;;;8.85;8.00;;;17.60;99.90;;;;;;1033314;28;20030;-65
2021/12/17 00:55:43;;;;;;;8.97;8.03;;;17.60;99.90;;;;;;1034702;28;20018;-63
2021/12/17 00:56:13;;;;;;;8.77;7.97;;;17.60;99.90;;;;;;1034287;28;20034;-63
2021/12/17 00:56:45;;;;;;;9.03;8.13;;;17.60;99.90;;;;;;1032366;28;20006;-64
2021/12/17 00:57:19;;;;;;;8.45;7.32;;;17.60;99.90;;;;;;1033805;28;20026;-63
2021/12/17 00:57:49;;;;;;;9.73;8.77;;;17.60;99.90;;;;;;1035225;28;20657;-63
2021/12/17 00:58:20;;;;;;;9.27;8.37;;;17.50;99.90;;;;;;1034326;28;20763;-64
2021/12/17 00:58:50;;;;;;;9.83;8.80;;;17.50;99.90;;;;;;1035140;28;20064;-64
2021/12/17 00:59:22;;;;;;;8.77;7.93;;;17.50;99.90;;;;;;1033502;28;20114;-64
2021/12/17 00:59:54;;;;;;;9.30;8.40;;;17.50;99.90;;;;;;1034422;28;20071;-63
2021/12/17 01:00:25;;;;;;;9.07;8.05;;;17.50;99.90;;;;;;1032216;28;20065;-64
2021/12/17 01:00:55;;;;;;;9.23;7.80;;;17.50;99.90;;;;;;1033277;28;20025;-64
2021/12/17 01:01:27;;;;;;;9.13;8.23;;;17.50;99.90;;;;;;1034080;28;20105;-64
2021/12/17 01:02:02;;;;;;;8.73;7.90;;;17.50;99.90;;;;;;1034588;28;20081;-63
2021/12/17 01:02:36;;;;;;;9.32;8.43;;;17.50;99.90;;;;;;1034215;28;20061;-63
2021/12/17 01:03:07;;;;;;;8.98;8.07;;;17.50;99.90;;;;;;1034271;28;20024;-63
2021/12/17 01:03:38;;;;;;;9.17;8.23;;;17.50;99.90;;;;;;1034238;28;20141;-63
2021/12/17 01:04:09;;;;;;;8.37;7.67;;;17.50;99.90;;;;;;1034349;28;20013;-64
2021/12/17 01:04:44;;;;;;;9.43;8.07;;;17.50;99.90;;;;;;1033497;28;20045;-65
2021/12/17 01:05:24;;;;;;;9.30;8.40;;;17.50;99.90;;;;;;1034337;28;20021;-63
2021/12/17 01:05:54;;;;;;;9.05;8.15;;;17.50;99.90;;;;;;1035248;28;20042;-64
2021/12/17 01:06:25;;;;;;;9.30;8.43;;;17.50;99.90;;;;;;1034618;28;20111;-66
2021/12/17 01:06:56;;;;;;;8.60;7.67;;;17.50;99.90;;;;;;1034959;28;20029;-64
2021/12/17 01:07:31;;;;;;;9.23;8.30;;;17.50;99.90;;;;;;1033571;28;20030;-65
2021/12/17 01:08:04;;;;;;;9.60;8.15;;;17.50;99.90;;;;;;1033960;28;20022;-64
2021/12/17 01:08:35;;;;;;;9.55;8.00;;;17.50;99.90;;;;;;1032225;28;20228;-64
2021/12/17 01:09:08;;;;;;;8.60;7.78;;;17.50;99.90;;;;;;1034268;28;20018;-64
2021/12/17 01:09:40;;;;;;;9.13;8.25;;;17.50;99.90;;;;;;1030840;28;20053;-64
2021/12/17 01:10:39;;;;;;;9.93;8.93;;;17.50;99.90;;;;;;1032643;28;20477;-65
2021/12/17 01:11:09;;;;;;;8.82;8.00;;;17.50;99.90;;;;;;1031408;28;20049;-64
2021/12/17 01:11:40;;;;;;;9.87;8.87;;;17.50;99.90;;;;;;1034374;28;20156;-64
2021/12/17 01:12:12;;;;;;;9.13;8.23;;;17.50;99.90;;;;;;1031615;28;20006;-63
2021/12/17 01:12:43;;;;;;;8.40;7.60;;;17.50;99.90;;;;;;1033236;28;20014;-64
2021/12/17 01:13:14;;;;;;;8.97;8.07;;;17.50;99.90;;;;;;1030105;28;20014;-65
2021/12/17 01:13:45;;;;;;;8.73;7.93;;;17.50;99.90;;;;;;1027688;28;20491;-65
2021/12/17 01:14:16;;;;;;;8.75;7.85;;;17.50;99.90;;;;;;1031111;28;20443;-64
2021/12/17 01:14:47;;;;;;;9.57;8.60;;;17.50;99.90;;;;;;1030480;28;20331;-64
2021/12/17 01:15:19;;;;;;;8.90;8.00;;;17.50;99.90;;;;;;1033471;28;20060;-64
2021/12/17 01:15:50;;;;;;;9.70;8.70;;;17.50;99.90;;;;;;1034102;28;20022;-65
2021/12/17 01:16:21;;;;;;;9.13;8.23;;;17.50;99.90;;;;;;1035455;28;20109;-64
2021/12/17 01:16:53;;;;;;;9.70;8.43;;;17.50;99.90;;;;;;1035043;28;20018;-64
2021/12/17 01:17:27;;;;;;;9.20;8.27;;;17.50;99.90;;;;;;1034150;28;20021;-64
2021/12/17 01:18:03;;;;;;;11.13;8.45;;;17.50;99.90;;;;;;1033935;28;20678;-65
2021/12/17 01:21:19;;;;;;;9.27;8.38;;;17.50;99.90;;;;;;1034294;28;20044;-64
2021/12/17 01:22:44;;;;;;;9.20;8.30;;;17.50;99.90;;;;;;1034679;28;20193;-64
2021/12/17 01:24:31;;;;;;;9.50;8.50;;;17.50;99.90;;;;;;1036155;28;20036;-64
2021/12/17 01:25:10;;;;;;;9.02;8.10;;;17.50;99.90;;;;;;1035603;28;20030;-64
2021/12/17 01:35:23;;;;;;;9.88;8.88;;;17.50;99.90;;;;;;1034171;28;20028;-65
2021/12/17 01:35:53;;;;;;;;;;;17.50;99.90;;;;;;1035963;28;20018;-64
2021/12/17 01:36:24;;;;;;;9.27;8.47;;;17.50;99.90;;;;;;1034612;28;19909;-64
2021/12/17 01:37:29;;;;;;;9.23;8.33;;;17.50;99.90;;;;;;1035036;28;20033;-65
2021/12/17 01:40:18;;;;;;;9.82;8.82;;;17.40;99.90;;;;;;1031588;28;20346;-64
2021/12/17 01:41:09;;;;;;;9.30;8.40;;;17.40;99.90;;;;;;1035399;28;20409;-63
2021/12/17 01:42:04;;;;;;;9.70;8.68;;;17.40;99.90;;;;;;1034867;28;20046;-63
2021/12/17 01:42:35;;;;;;;9.40;8.50;;;17.40;99.90;;;;;;1033704;28;20034;-63
2021/12/17 01:43:05;;;;;;;9.53;8.57;;;17.40;99.90;;;;;;1032904;28;20025;-65
2021/12/17 01:43:41;;;;;;;9.23;8.33;;;17.40;99.90;;;;;;1034161;28;20045;-64
2021/12/17 01:44:14;;;;;;;9.52;8.63;;;17.40;99.90;;;;;;1035569;28;20085;-64
2021/12/17 01:44:45;;;;;;;10.20;8.55;;;17.40;99.90;;;;;;1036064;28;20100;-64
2021/12/17 01:45:15;;;;;;;8.90;8.10;;;17.40;99.90;;;;;;1035212;28;20010;-65
2021/12/17 01:45:46;;;;;;;9.03;8.13;;;17.40;99.90;;;;;;1035792;28;20041;-64
2021/12/17 01:46:21;;;;;;;9.60;8.70;;;17.40;99.90;;;;;;1034903;28;20150;-64
2021/12/17 01:46:53;;;;;;;8.30;7.50;;;17.40;99.90;;;;;;1035722;28;20428;-64
2021/12/17 01:47:24;;;;;;;9.55;8.30;;;17.40;99.90;;;;;;1034241;28;20026;-65
2021/12/17 01:47:55;;;;;;;9.67;8.67;;;17.40;99.90;;;;;;1035958;28;20126;-64
2021/12/17 01:48:33;;;;;;;9.67;7.93;;;17.40;99.90;;;;;;1035541;28;20500;-64
2021/12/17 01:49:24;;;;;;;;;;;17.40;99.90;;;;;;1036030;28;20017;-63
2021/12/17 01:56:04;;;;;;;9.23;8.43;;;17.40;99.90;;;;;;1031644;28;20065;-65
2021/12/17 01:56:51;;;;;;;8.88;7.97;;;17.40;99.90;;;;;;1033223;28;20426;-63
2021/12/17 01:59:39;;;;;;;8.40;7.57;;;17.40;99.90;;;;;;1031531;28;20434;-63
2021/12/17 02:00:16;;;;;;;9.10;8.27;;;17.40;99.90;;;;;;1030939;28;20026;-63
2021/12/17 02:00:48;;;;;;;9.00;8.10;;;17.40;99.90;;;;;;1033618;28;20010;-64
2021/12/17 02:01:19;;;;;;;8.80;8.00;;;17.40;99.90;;;;;;1034247;28;20018;-64
2021/12/17 02:01:53;;;;;;;9.37;8.50;;;17.40;99.90;;;;;;1035495;28;20029;-64
2021/12/17 02:02:25;;;;;;;9.73;8.73;;;17.40;99.90;;;;;;1032418;28;20021;-64
2021/12/17 02:02:58;;;;;;;8.35;7.55;;;17.40;99.90;;;;;;1035313;28;20045;-63
2021/12/17 02:03:29;;;;;;;8.73;7.93;;;17.40;99.90;;;;;;1035380;28;20656;-64
2021/12/17 02:04:03;;;;;;;8.43;7.63;;;17.40;99.90;;;;;;1036121;28;20476;-64
2021/12/17 02:04:35;;;;;;;8.70;7.63;;;17.40;99.90;;;;;;1031080;28;20473;-64
2021/12/17 02:05:06;;;;;;;9.23;8.32;;;17.40;99.90;;;;;;1034561;28;20087;-65
2021/12/17 02:05:38;;;;;;;8.35;7.57;;;17.30;99.90;;;;;;1035054;28;20018;-63
2021/12/17 02:06:09;;;;;;;8.88;8.07;;;17.30;99.90;;;;;;1034129;28;20080;-63
2021/12/17 02:06:39;;;;;;;8.63;7.73;;;17.30;99.90;;;;;;1034268;28;20021;-65
2021/12/17 02:07:11;;;;;;;8.73;7.83;;;17.30;99.90;;;;;;1037341;28;20100;-63
2021/12/17 02:07:43;;;;;;;7.78;7.07;;;17.30;99.90;;;;;;1036400;28;20024;-63
2021/12/17 02:08:14;;;;;;;8.35;7.55;;;17.30;99.90;;;;;;1030863;28;20133;-64
2021/12/17 02:08:46;;;;;;;9.40;8.40;;;17.30;99.90;;;;;;1032442;28;20027;-65
2021/12/17 02:10:23;;;;;;;7.78;7.00;;;17.30;99.90;;;;;;1034591;28;20061;-66
2021/12/17 02:19:42;;;;;;;7.20;6.60;;;17.30;99.90;;;;;;1031334;28;21095;-65
2021/12/17 02:21:47;;;;;;;10.70;8.88;;;17.30;99.90;;;;;;1034600;28;20033;-64
2021/12/17 02:22:52;;;;;;;8.45;7.47;;;17.30;99.90;;;;;;1032783;28;20048;-65
2021/12/17 02:28:42;;;;;;;8.57;7.78;;;17.30;99.90;;;;;;1031141;28;20030;-64
2021/12/17 02:29:30;;;;;;;8.77;7.90;;;17.20;99.90;;;;;;1034296;28;20412;-64
2021/12/17 02:30:19;;;;;;;8.38;7.50;;;17.20;99.90;;;;;;1033397;28;20014;-65
2021/12/17 02:31:47;;;;;;;8.73;7.95;;;17.20;99.90;;;;;;1033209;28;20053;-64
2021/12/17 02:32:19;;;;;;;7.05;6.35;;;17.20;99.90;;;;;;1034392;28;20068;-64
2021/12/17 02:32:50;;;;;;;6.95;6.35;;;17.20;99.90;;;;;;1035333;28;20036;-64
2021/12/17 02:33:20;;;;;;;8.20;7.40;;;17.20;99.90;;;;;;1034031;28;21100;-66
2021/12/17 02:33:52;;;;;;;10.17;9.27;;;17.20;99.90;;;;;;1034775;28;20033;-64
2021/12/17 02:35:32;;;;;;;10.77;9.40;;;17.20;99.90;;;;;;1026330;28;20246;-64
2021/12/17 02:36:05;;;;;;;9.30;8.30;;;17.10;99.90;;;;;;1033814;28;20087;-66
2021/12/17 02:36:39;;;;;;;6.90;6.28;;;17.10;99.90;;;;;;1035307;28;20018;-63
2021/12/17 02:37:13;;;;;;;8.57;7.68;;;17.10;99.90;;;;;;1034353;28;20639;-65
2021/12/17 02:37:46;;;;;;;7.97;7.22;;;17.10;99.90;;;;;;1030385;28;20030;-64
2021/12/17 02:38:17;;;;;;;7.72;7.03;;;17.10;99.90;;;;;;1026812;28;20579;-67
2021/12/17 02:38:48;;;;;;;7.97;7.28;;;17.10;99.90;;;;;;1030158;28;20034;-64
2021/12/17 02:42:31;;;;;;;7.38;6.68;;;17.10;99.90;;;;;;1032052;28;20529;-64
2021/12/17 02:45:32;;;;;;;8.85;8.05;;;17.10;99.90;;;;;;1035432;28;20037;-63
2021/12/17 02:45:34;;;;;;;8.63;7.82;;;17.00;99.90;;;;;;1031869;28;20111;-66
2021/12/17 02:46:05;;;;;;;9.02;8.13;;;17.00;99.90;;;;;;1034419;28;20036;-65
2021/12/17 02:46:35;;;;;;;7.97;7.20;;;17.00;99.90;;;;;;1035847;28;20013;-64
2021/12/17 02:47:06;;;;;;;8.43;7.63;;;17.00;99.90;;;;;;1035430;28;20505;-63
2021/12/17 02:47:38;;;;;;;9.48;8.55;;;17.00;99.90;;;;;;1032157;28;20053;-64
2021/12/17 02:48:17;;;;;;;11.10;10.05;;;17.00;99.90;;;;;;1033656;28;20041;-64
2021/12/17 02:48:48;;;;;;;10.70;9.57;;;17.00;99.90;;;;;;1035475;28;20045;-65
2021/12/17 02:49:20;;;;;;;9.20;8.23;;;17.00;99.90;;;;;;1033143;28;20069;-64
2021/12/17 02:49:51;;;;;;;9.68;8.77;;;17.00;99.90;;;;;;1036820;28;20461;-63
2021/12/17 02:50:22;;;;;;;10.70;9.60;;;17.00;99.90;;;;;;1035358;28;20469;-64
2021/12/17 02:50:56;;;;;;;9.50;8.60;;;16.90;99.90;;;;;;1035739;28;20105;-64
2021/12/17 02:51:27;;;;;;;13.80;10.70;;;16.90;99.90;;;;;;1035352;28;20030;-63
2021/12/17 02:52:01;;;;;;;9.90;8.90;;;16.90;99.90;;;;;;1035421;28;20022;-63
2021/12/17 02:52:35;;;;;;;10.15;9.07;;;16.90;99.90;;;;;;1035273;28;20080;-64
2021/12/17 02:53:09;;;;;;;10.68;9.68;;;16.90;99.90;;;;;;1032659;28;20036;-64
2021/12/17 02:53:40;;;;;;;10.95;9.18;;;16.90;99.90;;;;;;1035403;28;20018;-65
2021/12/17 02:54:11;;;;;;;8.32;7.63;;;16.90;99.90;;;;;;1035297;28;20021;-63
2021/12/17 02:54:42;;;;;;;8.90;8.02;;;16.90;99.90;;;;;;1035438;28;20018;-65
2021/12/17 02:55:13;;;;;;;8.10;7.40;;;16.90;99.90;;;;;;1035335;28;20014;-64
2021/12/17 02:55:49;;;;;;;7.38;6.68;;;16.90;99.90;;;;;;1035344;28;20018;-64
2021/12/17 02:56:21;;;;;;;7.75;7.03;;;16.90;99.90;;;;;;1034148;28;20013;-65
2021/12/17 02:56:52;;;;;;;8.07;7.28;;;16.90;99.90;;;;;;1033521;28;20060;-65
2021/12/17 02:57:24;;;;;;;8.00;6.70;;;16.90;99.90;;;;;;1034086;28;20204;-65
2021/12/17 02:57:56;;;;;;;8.18;7.15;;;16.90;99.90;;;;;;1035348;28;20125;-63
2021/12/17 02:58:29;;;;;;;7.60;6.90;;;16.80;99.90;;;;;;1030523;28;20022;-64
2021/12/17 02:59:02;;;;;;;8.90;8.00;;;16.90;99.90;;;;;;1032009;28;20030;-64
2021/12/17 02:59:33;;;;;;;8.77;7.95;;;16.90;99.90;;;;;;1034876;28;20038;-64
2021/12/17 03:00:07;;;;;;;11.68;10.50;;;16.90;99.90;;;;;;1030335;28;20025;-64
2021/12/17 03:00:40;;;;;;;9.90;8.93;;;16.90;99.90;;;;;;1031795;28;20028;-65
2021/12/17 03:01:12;;;;;;;12.75;10.02;;;16.80;99.90;;;;;;1033311;28;20039;-63
2021/12/17 03:01:45;;;;;;;10.25;9.35;;;16.80;99.90;;;;;;1038581;28;20017;-63
2021/12/17 03:02:17;;;;;;;9.45;8.45;;;16.80;99.90;;;;;;1038940;28;20430;-64
2021/12/17 03:02:49;;;;;;;11.85;10.65;;;16.80;99.90;;;;;;1036362;28;20002;-64
2021/12/17 03:03:22;;;;;;;13.23;11.93;;;16.80;99.90;;;;;;1035265;28;20148;-64
2021/12/17 03:03:55;;;;;;;12.45;10.90;;;16.80;99.90;;;;;;1035204;28;20025;-64
2021/12/17 03:04:27;;;;;;;13.80;12.27;;;16.80;99.90;;;;;;1033449;28;20022;-64
2021/12/17 03:04:58;;;;;;;13.85;12.50;;;16.70;99.90;;;;;;1032902;28;20030;-64
2021/12/17 03:05:29;;;;;;;13.97;12.50;;;16.70;99.90;;;;;;1032003;28;20078;-63
2021/12/17 03:06:00;;;;;;;14.07;11.43;;;16.70;99.90;;;;;;1031437;28;20156;-64
2021/12/17 03:06:31;;;;;;;11.35;9.77;;;16.70;99.90;;;;;;1031939;28;20023;-64
2021/12/17 03:07:02;;;;;;;8.00;7.20;;;16.70;99.90;;;;;;1035161;28;20026;-63
2021/12/17 03:07:39;;;;;;;8.60;7.70;;;16.70;99.90;;;;;;1035053;28;20100;-64
2021/12/17 03:08:15;;;;;;;7.95;7.15;;;16.70;99.90;;;;;;1034381;28;20036;-64
2021/12/17 03:08:48;;;;;;;7.40;6.72;;;16.70;99.90;;;;;;1032678;28;20026;-64
2021/12/17 03:09:27;;;;;;;9.52;7.88;;;16.70;99.90;;;;;;1033731;28;20526;-64
2021/12/17 03:10:04;;;;;;;9.68;8.52;;;16.70;99.90;;;;;;1035617;28;20002;-64
2021/12/17 03:10:35;;;;;;;8.75;7.85;;;16.70;99.90;;;;;;1035296;28;20057;-64
2021/12/17 03:11:06;;;;;;;8.00;7.20;;;16.70;99.90;;;;;;1035270;28;20022;-64
2021/12/17 03:11:37;;;;;;;7.20;6.50;;;16.70;99.90;;;;;;1035090;28;20025;-63
2021/12/17 03:12:15;;;;;;;8.43;7.57;;;16.70;99.90;;;;;;1034688;28;20019;-65
2021/12/17 03:12:50;;;;;;;7.25;6.57;;;16.70;99.90;;;;;;1033522;28;20022;-65
2021/12/17 03:13:23;;;;;;;8.50;7.60;;;16.70;99.90;;;;;;1034103;28;20072;-63
2021/12/17 03:13:53;;;;;;;8.43;7.57;;;16.70;99.90;;;;;;1035621;28;20014;-63
2021/12/17 03:14:25;;;;;;;8.97;8.07;;;16.70;99.90;;;;;;1035304;28;20029;-65
2021/12/17 03:15:05;;;;;;;7.50;6.75;;;16.70;99.90;;;;;;1035477;28;20011;-63
2021/12/17 03:15:47;;;;;;;7.65;6.95;;;16.70;99.90;;;;;;1035018;28;20042;-64
2021/12/17 03:17:03;;;;;;;7.43;6.72;;;16.70;99.90;;;;;;1035024;28;20347;-64
2021/12/17 03:19:09;;;;;;;8.52;7.72;;;16.70;99.90;;;;;;1034176;28;20022;-64
2021/12/17 03:23:43;;;;;;;8.00;7.07;;;16.70;99.90;;;;;;1034711;28;20440;-65
2021/12/17 03:24:18;;;;;;;7.57;6.87;;;16.70;99.90;;;;;;1032831;28;20494;-65
2021/12/17 03:24:49;;;;;;;8.40;7.57;;;16.70;99.90;;;;;;1034526;28;20045;-63
2021/12/17 03:25:19;;;;;;;7.47;6.77;;;16.70;99.90;;;;;;1034232;28;20024;-65
2021/12/17 03:25:50;;;;;;;7.70;6.73;;;16.80;99.90;;;;;;1035480;28;20097;-64
2021/12/17 03:26:26;;;;;;;8.20;7.40;;;16.80;99.90;;;;;;1034568;28;20080;-65
2021/12/17 03:26:56;;;;;;;7.60;6.90;;;16.70;99.90;;;;;;1033604;28;20315;-65
2021/12/17 03:27:27;;;;;;;8.50;7.70;;;16.70;99.90;;;;;;1034104;28;20571;-64
2021/12/17 03:27:57;;;;;;;9.23;7.93;;;16.70;99.90;;;;;;1032574;28;20014;-65
2021/12/17 03:28:29;;;;;;;11.53;9.83;;;16.70;99.90;;;;;;1034933;28;20026;-64
2021/12/17 03:29:04;;;;;;;9.90;8.55;;;16.70;99.90;;;;;;1035252;28;20014;-64
2021/12/17 03:29:34;;;;;;;8.05;7.35;;;16.70;99.90;;;;;;1035061;28;20062;-64
2021/12/17 03:30:05;;;;;;;8.17;7.13;;;16.70;99.90;;;;;;1035184;28;20029;-63
2021/12/17 03:30:36;;;;;;;7.65;6.93;;;16.70;99.90;;;;;;1031498;28;20420;-65
2021/12/17 03:31:08;;;;;;;8.40;7.60;;;16.70;99.90;;;;;;1034501;28;20014;-64
2021/12/17 03:31:39;;;;;;;7.97;7.18;;;16.70;99.90;;;;;;1034296;28;20018;-64
2021/12/17 03:32:09;;;;;;;8.77;6.73;;;16.70;99.90;;;;;;1034004;28;20022;-63
2021/12/17 03:32:40;;;;;;;8.53;7.63;;;16.70;99.90;;;;;;1034725;28;20018;-63
2021/12/17 03:33:11;;;;;;;7.90;7.10;;;16.70;99.90;;;;;;1034659;28;20017;-64
2021/12/17 03:33:44;;;;;;;8.38;7.22;;;16.70;99.90;;;;;;1035232;28;20055;-64
2021/12/17 03:34:20;;;;;;;7.80;6.97;;;16.70;99.90;;;;;;1034835;28;20014;-63
2021/12/17 03:34:51;;;;;;;9.50;7.30;;;16.70;99.90;;;;;;1032989;28;20018;-64
2021/12/17 03:35:21;;;;;;;8.30;7.03;;;16.70;99.90;;;;;;1034528;28;20026;-64
2021/12/17 03:35:52;;;;;;;7.87;7.17;;;16.70;99.90;;;;;;1032884;28;20505;-65
2021/12/17 03:36:23;;;;;;;6.65;6.05;;;16.70;99.90;;;;;;1034656;28;20125;-65
2021/12/17 03:36:56;;;;;;;7.80;7.00;;;16.70;99.90;;;;;;1035426;28;20456;-64
2021/12/17 03:37:26;;;;;;;7.63;6.82;;;16.80;99.90;;;;;;1034717;28;20093;-64
2021/12/17 03:37:57;;;;;;;7.80;6.97;;;16.80;99.90;;;;;;1034866;28;20034;-65
2021/12/17 03:38:28;;;;;;;7.63;6.83;;;16.80;99.90;;;;;;1034857;28;20034;-64
2021/12/17 03:38:59;;;;;;;7.40;6.70;;;16.70;99.90;;;;;;1035264;28;20049;-64
2021/12/17 03:39:30;;;;;;;8.90;8.00;;;16.70;99.90;;;;;;1033786;28;20401;-64
2021/12/17 03:40:01;;;;;;;8.25;7.45;;;16.70;99.90;;;;;;1032718;28;20049;-65
2021/12/17 03:40:33;;;;;;;8.60;7.60;;;16.70;99.90;;;;;;1034953;28;20010;-64
2021/12/17 03:41:13;;;;;;;8.88;7.97;;;16.70;99.90;;;;;;1034633;28;20029;-63
2021/12/17 03:41:50;;;;;;;7.80;7.07;;;16.70;99.90;;;;;;1035447;28;20010;-63
2021/12/17 03:42:21;;;;;;;6.95;6.28;;;16.70;99.90;;;;;;1031289;28;20026;-64
2021/12/17 03:42:51;;;;;;;8.83;7.23;;;16.80;99.90;;;;;;1035382;28;20026;-64
2021/12/17 03:43:29;;;;;;;9.13;7.80;;;16.80;99.90;;;;;;1033594;28;20695;-64
2021/12/17 03:44:00;;;;;;;8.18;7.38;;;16.80;99.90;;;;;;1034501;28;20014;-65
2021/12/17 03:44:32;;;;;;;8.10;7.30;;;16.80;99.90;;;;;;1031042;28;20110;-64
2021/12/17 03:45:03;;;;;;;8.50;7.70;;;16.80;99.90;;;;;;1031245;28;20065;-65
2021/12/17 03:45:33;;;;;;;9.50;7.90;;;16.80;99.90;;;;;;1030959;28;20019;-64
2021/12/17 03:46:04;;;;;;;8.30;7.50;;;16.80;99.90;;;;;;1034040;28;20030;-64
2021/12/17 03:46:34;;;;;;;8.57;7.70;;;16.80;99.90;;;;;;1034736;28;20025;-63
2021/12/17 03:47:05;;;;;;;9.57;7.50;;;16.70;99.90;;;;;;1034212;28;20033;-63
2021/12/17 03:47:35;;;;;;;7.70;6.93;;;16.70;99.90;;;;;;1032853;28;20030;-64
2021/12/17 03:48:07;;;;;;;7.87;7.07;;;16.80;99.90;;;;;;1034578;28;20056;-63
2021/12/17 03:48:40;;;;;;;8.15;7.32;;;16.70;99.90;;;;;;1034790;28;20030;-63
2021/12/17 03:49:10;;;;;;;8.15;7.35;;;16.80;99.90;;;;;;1034758;28;20010;-64
2021/12/17 03:49:43;;;;;;;7.63;6.93;;;16.80;99.90;;;;;;1035072;28;20030;-63
2021/12/17 03:50:13;;;;;;;9.40;7.80;;;16.80;99.90;;;;;;1034326;28;20053;-64
2021/12/17 03:50:44;;;;;;;8.70;7.90;;;16.80;99.90;;;;;;1035122;28;20014;-63
2021/12/17 03:51:16;;;;;;;8.83;7.90;;;16.80;99.90;;;;;;1032384;28;20331;-63
2021/12/17 03:52:05;;;;;;;9.13;7.90;;;16.70;99.90;;;;;;1036222;28;20113;-64
2021/12/17 03:52:36;;;;;;;8.25;7.45;;;16.70;99.90;;;;;;1035172;28;20381;-63
2021/12/17 03:53:08;;;;;;;7.70;7.00;;;16.80;99.90;;;;;;1034988;28;20453;-63
2021/12/17 03:53:41;;;;;;;8.88;8.02;;;16.80;99.90;;;;;;1031542;28;20062;-63
2021/12/17 03:54:11;;;;;;;8.55;7.75;;;16.80;99.90;;;;;;1033414;28;20068;-64
2021/12/17 03:54:42;;;;;;;8.83;7.77;;;16.80;99.90;;;;;;1035122;28;20080;-62
2021/12/17 03:55:13;;;;;;;8.03;7.23;;;16.80;99.90;;;;;;1031841;28;20017;-65
2021/12/17 03:55:43;;;;;;;8.90;7.73;;;16.80;99.90;;;;;;1035537;28;20559;-64
2021/12/17 03:56:14;;;;;;;8.00;7.20;;;16.80;99.90;;;;;;1035192;28;20101;-63
2021/12/17 03:56:45;;;;;;;9.57;8.70;;;16.80;99.90;;;;;;1035396;28;20021;-63
2021/12/17 03:57:18;;;;;;;13.83;12.43;;;16.80;99.90;;;;;;1034945;28;20240;-65
2021/12/17 03:57:48;;;;;;;10.02;9.02;;;16.80;99.90;;;;;;1031963;28;20018;-65
2021/12/17 03:58:19;;;;;;;9.20;7.90;;;16.80;99.90;;;;;;1034648;28;20017;-64
2021/12/17 03:58:52;;;;;;;8.80;7.90;;;16.80;99.90;;;;;;1034721;28;20065;-65
2021/12/17 03:59:22;;;;;;;9.45;8.45;;;16.80;99.90;;;;;;1033416;28;20765;-63
2021/12/17 03:59:53;;;;;;;9.60;8.43;;;16.80;99.90;;;;;;1034532;28;20006;-65
2021/12/17 04:00:23;;;;;;;9.00;8.07;;;16.80;99.90;;;;;;1034755;28;20527;-64
2021/12/17 04:00:54;;;;;;;8.70;7.80;;;16.80;99.90;;;;;;1035214;28;20029;-65
2021/12/17 04:01:26;;;;;;;8.77;7.87;;;16.80;99.90;;;;;;1034549;28;20405;-64
2021/12/17 04:01:57;;;;;;;9.13;8.32;;;16.80;99.90;;;;;;1034742;28;20101;-65
2021/12/17 04:02:27;;;;;;;8.47;7.67;;;16.80;99.90;;;;;;1034697;28;20323;-64
2021/12/17 04:02:58;;;;;;;11.27;10.17;;;16.80;99.90;;;;;;1032655;28;20014;-66
2021/12/17 04:03:29;;;;;;;11.68;10.50;;;16.80;99.90;;;;;;1035252;28;20026;-65
2021/12/17 04:03:59;;;;;;;13.33;11.97;;;16.80;99.90;;;;;;1035652;28;20026;-65
2021/12/17 04:04:30;;;;;;;14.77;13.00;;;16.80;99.90;;;;;;1034971;28;20029;-64
2021/12/17 04:05:01;;;;;;;10.17;9.17;;;16.80;99.90;;;;;;1035327;28;20097;-66
2021/12/17 04:05:32;;;;;;;8.10;7.32;;;16.70;99.90;;;;;;1035286;28;20469;-65
2021/12/17 04:06:03;;;;;;;8.83;7.87;;;16.70;99.90;;;;;;1034159;28;20521;-64
2021/12/17 04:06:33;;;;;;;7.97;7.25;;;16.70;99.90;;;;;;1034887;28;20556;-64
2021/12/17 04:07:04;;;;;;;8.40;7.60;;;16.70;99.90;;;;;;1032722;28;20133;-62
2021/12/17 04:07:35;;;;;;;9.70;8.70;;;16.70;99.90;;;;;;1035883;28;20253;-61
2021/12/17 04:08:05;;;;;;;9.13;8.20;;;16.70;99.90;;;;;;1035106;28;20018;-61
2021/12/17 04:08:36;;;;;;;9.03;8.13;;;16.70;99.90;;;;;;1035219;28;20056;-63
2021/12/17 04:09:08;;;;;;;8.67;7.87;;;16.80;99.90;;;;;;1034962;28;20033;-62
2021/12/17 04:09:39;;;;;;;9.38;8.05;;;16.70;99.90;;;;;;1035081;28;20025;-63
2021/12/17 04:10:10;;;;;;;8.03;7.23;;;16.70;99.90;;;;;;1034529;28;20021;-64
2021/12/17 04:10:45;;;;;;;8.53;7.53;;;16.70;99.90;;;;;;1033548;28;20010;-65
2021/12/17 04:11:19;;;;;;;8.48;7.68;;;16.70;99.90;;;;;;1034512;28;20022;-64
2021/12/17 04:11:49;;;;;;;8.25;7.30;;;16.70;99.90;;;;;;1035542;28;20093;-63
2021/12/17 04:12:26;;;;;;;7.90;7.13;;;16.70;99.90;;;;;;1034612;28;20033;-65
2021/12/17 04:13:12;;;;;;;8.55;7.65;;;16.70;99.90;;;;;;1034842;28;20545;-65
2021/12/17 04:13:43;;;;;;;9.00;8.15;;;16.70;99.90;;;;;;1034107;28;20045;-65
2021/12/17 04:14:14;;;;;;;8.13;7.28;;;16.70;99.90;;;;;;1034326;28;20101;-63
2021/12/17 04:14:47;;;;;;;8.13;7.33;;;16.70;99.90;;;;;;1033119;28;20034;-63
2021/12/17 04:15:18;;;;;;;8.93;8.13;;;16.70;99.90;;;;;;1034749;28;20287;-63
2021/12/17 04:16:02;;;;;;;8.17;7.37;;;16.70;99.90;;;;;;1035503;28;20362;-62
2021/12/17 04:16:34;;;;;;;7.72;7.03;;;16.70;99.90;;;;;;1035269;28;20030;-64
2021/12/17 04:17:06;;;;;;;8.25;7.45;;;16.70;99.90;;;;;;1034820;28;20097;-63
2021/12/17 04:17:46;;;;;;;8.10;7.30;;;16.80;99.90;;;;;;1035033;28;20091;-64
2021/12/17 04:18:17;;;;;;;7.85;7.13;;;16.70;99.90;;;;;;1034398;28;20112;-63
2021/12/17 04:18:47;;;;;;;8.53;7.73;;;16.80;99.90;;;;;;1032494;28;20041;-63
2021/12/17 04:19:18;;;;;;;8.60;7.80;;;16.70;99.90;;;;;;1037187;28;20145;-64